Time;durP1;ratioP1;P1;durP2;ratioP2;P2;SDS_P1;SDS_P2;PMS_P1;PMS_P2;Temp;Humidity;BMP_temperature;BMP_pressure;BME280_temperature;BME280_humidity;BME280_pressure;Samples;Min_cycle;Max_cycle;Signal;HPM_P1;HPM_P2
2021/07/28 00:00:10;;;;;;;6.38;4.72;;;17.20;92.10;;;;;;2059024;28;20035;-92
2021/07/28 00:01:17;;;;;;;6.82;4.70;;;17.20;92.20;;;;;;2074192;28;20104;-92
2021/07/28 00:02:18;;;;;;;6.80;4.55;;;17.30;92.20;;;;;;2062967;28;20073;-93
2021/07/28 00:03:18;;;;;;;5.95;4.38;;;17.30;92.20;;;;;;2047639;28;20481;-93
2021/07/28 00:04:19;;;;;;;7.13;4.55;;;17.20;92.20;;;;;;2049799;28;20039;-93
2021/07/28 00:05:20;;;;;;;5.82;4.32;;;17.20;92.20;;;;;;2058947;28;20046;-91
2021/07/28 00:06:22;;;;;;;6.32;4.60;;;17.20;92.20;;;;;;2066322;28;20038;-92
2021/07/28 00:07:22;;;;;;;6.35;4.65;;;17.20;92.20;;;;;;2058579;28;20046;-92
2021/07/28 00:08:23;;;;;;;7.18;4.60;;;17.30;92.20;;;;;;2066428;28;20089;-93
2021/07/28 00:09:25;;;;;;;6.50;4.60;;;17.20;92.20;;;;;;2066625;28;20488;-92
2021/07/28 00:10:25;;;;;;;6.53;4.65;;;17.20;92.20;;;;;;2058827;28;20121;-91
2021/07/28 00:11:26;;;;;;;7.07;4.85;;;17.20;92.20;;;;;;2050421;28;20535;-93
2021/07/28 00:12:27;;;;;;;5.60;4.35;;;17.20;92.20;;;;;;2042959;29;20035;-93
2021/07/28 00:13:27;;;;;;;6.05;4.63;;;17.20;92.20;;;;;;2057642;28;20035;-92
2021/07/28 00:14:28;;;;;;;6.43;4.75;;;17.20;92.20;;;;;;2065279;28;20076;-93
2021/07/28 00:15:29;;;;;;;6.50;4.82;;;17.20;92.20;;;;;;2058032;28;20077;-93
2021/07/28 00:16:30;;;;;;;6.13;4.45;;;17.20;92.20;;;;;;2063791;28;20046;-92
2021/07/28 00:17:31;;;;;;;6.28;4.72;;;17.20;92.30;;;;;;2058592;28;20111;-94
2021/07/28 00:18:42;;;;;;;6.70;5.03;;;17.10;92.30;;;;;;2039980;28;20550;-92
2021/07/28 00:19:51;;;;;;;;;;;17.10;92.30;;;;;;2060736;28;20035;-92
2021/07/28 00:23:32;;;;;;;5.80;3.95;;;17.10;92.20;;;;;;2080269;28;20026;-92
2021/07/28 00:24:34;;;;;;;5.07;4.07;;;17.10;92.20;;;;;;2058425;28;20524;-93
2021/07/28 00:25:35;;;;;;;5.75;4.13;;;17.00;92.10;;;;;;2049731;28;20043;-92
2021/07/28 00:26:37;;;;;;;5.75;4.20;;;17.10;92.20;;;;;;2058143;28;20035;-92
2021/07/28 00:27:38;;;;;;;6.00;4.53;;;17.00;92.20;;;;;;2061147;28;20501;-92
2021/07/28 00:28:38;;;;;;;6.30;4.57;;;17.10;92.30;;;;;;2063256;28;20076;-91
2021/07/28 00:29:39;;;;;;;5.95;4.35;;;17.00;92.20;;;;;;2058639;28;20111;-91
2021/07/28 00:30:43;;;;;;;6.85;5.20;;;17.00;92.30;;;;;;2067531;28;20577;-92
2021/07/28 00:31:44;;;;;;;7.63;4.95;;;17.00;92.30;;;;;;2068453;28;20038;-93
2021/07/28 00:32:45;;;;;;;7.28;5.15;;;17.00;92.30;;;;;;2058764;28;20374;-93
2021/07/28 00:33:45;;;;;;;6.60;4.97;;;17.00;92.30;;;;;;2058862;28;20146;-92
2021/07/28 00:34:46;;;;;;;6.05;4.47;;;17.00;92.30;;;;;;2054665;28;20035;-92
2021/07/28 00:35:48;;;;;;;6.57;4.65;;;17.00;92.30;;;;;;2050313;28;20035;-92
2021/07/28 00:36:49;;;;;;;6.97;5.05;;;17.00;92.30;;;;;;2064458;28;20061;-93
2021/07/28 00:37:50;;;;;;;6.35;4.97;;;17.00;92.60;;;;;;2066342;28;20464;-94
2021/07/28 00:38:51;;;;;;;6.68;4.82;;;17.00;92.30;;;;;;2049878;28;20044;-93
2021/07/28 00:39:52;;;;;;;6.57;5.03;;;17.00;92.30;;;;;;2040798;28;20115;-92
2021/07/28 00:40:52;;;;;;;5.88;4.60;;;17.00;92.30;;;;;;2049215;28;20134;-93
2021/07/28 00:41:53;;;;;;;8.23;5.00;;;17.00;92.30;;;;;;2050476;28;20424;-92
2021/07/28 00:43:11;;;;;;;6.47;5.10;;;17.00;92.30;;;;;;2050339;28;20043;-93
2021/07/28 00:44:12;;;;;;;6.47;4.75;;;17.00;92.30;;;;;;2060303;28;20039;-93
2021/07/28 00:45:13;;;;;;;6.70;4.82;;;17.00;92.60;;;;;;2065833;28;20026;-93
2021/07/28 00:46:14;;;;;;;6.57;4.68;;;16.90;92.30;;;;;;2050047;29;20119;-93
2021/07/28 00:47:15;;;;;;;7.28;5.10;;;16.90;92.30;;;;;;2049955;28;20054;-92
2021/07/28 00:48:15;;;;;;;6.75;5.05;;;16.90;92.30;;;;;;2054410;28;20486;-93
2021/07/28 00:49:16;;;;;;;7.20;5.40;;;17.00;92.40;;;;;;2042092;29;20544;-94
2021/07/28 00:50:17;;;;;;;6.80;4.90;;;16.90;92.40;;;;;;2060499;28;20118;-92
2021/07/28 00:51:18;;;;;;;6.95;5.13;;;16.90;92.40;;;;;;2057582;28;20392;-92
2021/07/28 00:52:18;;;;;;;7.03;5.18;;;16.90;92.40;;;;;;2057689;28;20098;-93
2021/07/28 00:53:19;;;;;;;7.15;5.10;;;16.90;92.40;;;;;;2042260;29;20044;-93
2021/07/28 00:54:20;;;;;;;7.18;5.20;;;16.90;92.40;;;;;;2045861;28;20047;-94
2021/07/28 00:55:21;;;;;;;7.00;5.13;;;16.90;92.40;;;;;;2066143;28;20438;-93
2021/07/28 00:56:21;;;;;;;6.88;5.18;;;16.90;92.40;;;;;;2053240;28;20054;-94
2021/07/28 00:57:22;;;;;;;6.80;5.00;;;16.90;92.40;;;;;;2064563;28;20058;-94
2021/07/28 00:58:23;;;;;;;6.55;4.85;;;16.90;92.40;;;;;;2065806;28;20046;-94
2021/07/28 00:59:24;;;;;;;7.75;5.30;;;16.90;92.40;;;;;;2058143;28;20031;-94
2021/07/28 01:00:25;;;;;;;7.03;5.05;;;16.90;92.40;;;;;;2057817;28;20035;-95
2021/07/28 01:01:26;;;;;;;7.13;5.18;;;16.90;92.40;;;;;;2049730;28;20055;-95
2021/07/28 01:02:27;;;;;;;7.13;5.13;;;16.90;92.40;;;;;;2057562;28;20082;-94
2021/07/28 01:03:28;;;;;;;7.25;5.40;;;16.90;92.40;;;;;;2057664;28;20050;-94
2021/07/28 01:04:29;;;;;;;7.60;5.45;;;16.80;92.40;;;;;;2049741;29;20413;-93
2021/07/28 01:05:30;;;;;;;6.47;4.95;;;16.90;92.40;;;;;;2057200;28;20051;-93
2021/07/28 01:06:31;;;;;;;6.35;4.90;;;16.80;92.70;;;;;;2065919;28;20582;-94
2021/07/28 01:07:32;;;;;;;7.25;5.25;;;16.80;92.40;;;;;;2065065;28;20038;-94
2021/07/28 01:08:33;;;;;;;7.10;5.20;;;16.80;92.40;;;;;;2062863;28;20138;-94
2021/07/28 01:09:34;;;;;;;7.80;5.50;;;16.80;92.70;;;;;;2057155;28;20031;-94
2021/07/28 01:10:35;;;;;;;6.68;5.07;;;16.80;92.40;;;;;;2049348;28;20043;-93
2021/07/28 01:11:36;;;;;;;7.68;5.45;;;16.80;92.40;;;;;;2056639;28;20035;-93
2021/07/28 01:12:42;;;;;;;7.30;5.10;;;16.80;92.70;;;;;;2057451;28;20038;-94
2021/07/28 01:13:43;;;;;;;7.65;5.22;;;16.80;92.40;;;;;;2057895;28;20122;-94
2021/07/28 01:14:44;;;;;;;7.68;5.35;;;16.80;92.50;;;;;;2050544;28;20413;-94
2021/07/28 01:15:47;;;;;;;7.68;5.60;;;16.80;92.50;;;;;;2064890;28;20129;-94
2021/07/28 01:16:47;;;;;;;7.10;5.38;;;16.80;92.40;;;;;;2049860;29;20035;-93
2021/07/28 01:17:50;;;;;;;6.97;5.03;;;16.80;92.40;;;;;;2050551;28;20035;-93
2021/07/28 01:18:52;;;;;;;7.40;5.18;;;16.80;92.40;;;;;;2063294;28;20050;-94
2021/07/28 01:20:00;;;;;;;7.60;5.57;;;16.80;92.40;;;;;;2074091;28;20033;-95
2021/07/28 01:21:01;;;;;;;7.07;5.35;;;16.80;92.40;;;;;;2074692;28;20530;-94
2021/07/28 01:22:02;;;;;;;6.88;5.22;;;16.80;92.50;;;;;;2069373;28;20046;-94
2021/07/28 01:23:12;;;;;;;6.50;5.00;;;16.80;92.40;;;;;;2073737;28;20121;-96
2021/07/28 01:24:15;;;;;;;9.82;5.10;;;16.80;92.40;;;;;;2075937;28;20136;-95
2021/07/28 01:25:16;;;;;;;6.72;5.13;;;16.70;92.40;;;;;;2066381;28;20043;-94
2021/07/28 01:26:17;;;;;;;7.40;5.47;;;16.80;92.40;;;;;;2060538;28;20121;-94
2021/07/28 01:27:18;;;;;;;7.20;5.18;;;16.70;92.40;;;;;;2050643;28;20046;-95
2021/07/28 01:28:21;;;;;;;6.97;5.43;;;16.70;92.40;;;;;;2060822;28;20147;-94
2021/07/28 01:29:23;;;;;;;8.20;5.38;;;16.80;92.50;;;;;;2055870;28;20477;-93
2021/07/28 01:30:24;;;;;;;7.82;5.40;;;16.70;92.40;;;;;;2058593;28;20141;-93
2021/07/28 01:31:24;;;;;;;7.32;5.38;;;16.80;92.50;;;;;;2051755;28;20127;-94
2021/07/28 01:32:25;;;;;;;6.35;5.00;;;16.80;92.50;;;;;;2050388;28;20039;-94
2021/07/28 01:33:29;;;;;;;7.90;5.80;;;16.70;92.40;;;;;;2051973;28;20067;-94
2021/07/28 01:34:29;;;;;;;7.60;5.85;;;16.70;92.40;;;;;;2059922;28;20050;-95
2021/07/28 01:35:32;;;;;;;7.20;5.72;;;16.70;92.40;;;;;;2053459;28;20824;-94
2021/07/28 01:36:34;;;;;;;7.60;5.40;;;16.70;92.40;;;;;;2068456;28;20037;-94
2021/07/28 01:37:35;;;;;;;8.15;5.80;;;16.70;92.50;;;;;;2081986;28;20041;-95
2021/07/28 01:38:36;;;;;;;7.50;5.63;;;16.70;92.50;;;;;;2061603;28;20031;-95
2021/07/28 01:39:37;;;;;;;7.40;5.47;;;16.70;92.50;;;;;;2060956;28;20063;-94
2021/07/28 01:40:39;;;;;;;7.65;5.80;;;16.70;92.50;;;;;;2059118;28;20067;-94
2021/07/28 01:41:39;;;;;;;7.20;5.53;;;16.70;92.50;;;;;;2069022;28;20042;-94
2021/07/28 01:42:42;;;;;;;7.18;5.63;;;16.70;92.50;;;;;;2069691;28;20042;-93
2021/07/28 01:43:43;;;;;;;7.28;5.68;;;16.70;92.50;;;;;;2061923;28;20039;-93
2021/07/28 01:44:43;;;;;;;7.43;5.63;;;16.70;92.50;;;;;;2069497;28;20045;-94
2021/07/28 01:45:44;;;;;;;7.13;5.70;;;16.60;92.50;;;;;;2058757;28;20102;-94
2021/07/28 01:46:45;;;;;;;7.53;5.80;;;16.60;92.50;;;;;;2043991;28;20062;-94
2021/07/28 01:47:46;;;;;;;7.57;5.68;;;16.60;92.50;;;;;;2061019;28;20053;-94
2021/07/28 01:48:46;;;;;;;7.28;5.60;;;16.60;92.50;;;;;;2068216;28;20035;-93
2021/07/28 01:49:47;;;;;;;9.23;5.70;;;16.60;92.50;;;;;;2060464;28;20039;-95
2021/07/28 01:50:48;;;;;;;7.70;5.63;;;16.60;92.50;;;;;;2043993;28;20038;-95
2021/07/28 01:51:49;;;;;;;8.45;5.60;;;16.60;92.50;;;;;;2049687;29;20066;-95
2021/07/28 01:52:49;;;;;;;8.52;6.03;;;16.60;92.50;;;;;;2061109;28;20114;-94
2021/07/28 01:53:50;;;;;;;8.32;6.07;;;16.60;92.50;;;;;;2065186;28;20528;-93
2021/07/28 01:54:51;;;;;;;7.53;5.82;;;16.60;92.50;;;;;;2048812;28;20405;-94
2021/07/28 01:55:54;;;;;;;7.25;5.47;;;16.60;92.50;;;;;;2065701;28;20082;-94
2021/07/28 01:56:55;;;;;;;7.57;5.57;;;16.60;92.50;;;;;;2050784;28;20039;-95
2021/07/28 01:57:56;;;;;;;7.60;5.47;;;16.60;92.50;;;;;;2065370;28;20042;-91
2021/07/28 01:58:57;;;;;;;7.60;5.82;;;16.60;92.50;;;;;;2074290;28;20039;-95
2021/07/28 02:00:00;;;;;;;7.45;5.70;;;16.70;92.50;;;;;;2075853;28;20042;-92
2021/07/28 02:01:00;;;;;;;12.13;6.00;;;16.60;92.50;;;;;;2076110;28;20022;-93
2021/07/28 02:02:01;;;;;;;6.88;5.57;;;16.60;92.50;;;;;;2071960;28;20022;-93
2021/07/28 02:03:03;;;;;;;7.47;5.55;;;16.60;92.50;;;;;;2059421;28;20042;-93
2021/07/28 02:04:04;;;;;;;8.32;5.82;;;16.60;92.50;;;;;;2068247;28;20015;-90
2021/07/28 02:05:05;;;;;;;7.50;5.50;;;16.60;92.50;;;;;;2075393;28;20014;-89
2021/07/28 02:06:07;;;;;;;7.55;5.68;;;16.60;92.50;;;;;;2074712;28;20030;-90
2021/07/28 02:07:08;;;;;;;8.00;5.60;;;16.70;92.50;;;;;;2067552;28;20015;-91
2021/07/28 02:08:12;;;;;;;8.32;6.00;;;16.60;92.50;;;;;;2066157;28;20026;-93
2021/07/28 02:09:12;;;;;;;7.32;5.68;;;16.60;92.50;;;;;;2068965;28;20091;-89
2021/07/28 02:10:13;;;;;;;7.00;5.28;;;16.60;92.50;;;;;;2070369;28;20019;-95
2021/07/28 02:11:14;;;;;;;7.47;5.70;;;16.60;92.50;;;;;;2065169;28;20019;-91
2021/07/28 02:12:14;;;;;;;7.07;5.53;;;16.60;92.50;;;;;;2070768;28;20043;-93
2021/07/28 02:13:17;;;;;;;7.70;6.07;;;16.60;92.50;;;;;;2068678;28;20027;-94
2021/07/28 02:14:18;;;;;;;7.03;5.35;;;16.60;92.60;;;;;;2067198;28;20038;-94
2021/07/28 02:15:19;;;;;;;7.10;5.75;;;16.60;92.60;;;;;;2057821;28;20062;-94
2021/07/28 02:16:19;;;;;;;8.23;5.95;;;16.60;92.50;;;;;;2042800;28;20042;-95
2021/07/28 02:17:20;;;;;;;7.47;5.68;;;16.60;92.50;;;;;;2049262;28;20075;-93
2021/07/28 02:18:20;;;;;;;8.18;5.90;;;16.60;92.50;;;;;;2060201;28;20054;-94
2021/07/28 02:19:21;;;;;;;7.43;5.60;;;16.60;92.50;;;;;;2081099;28;20054;-95
2021/07/28 02:20:23;;;;;;;9.23;5.82;;;16.60;92.50;;;;;;2073865;28;20038;-94
2021/07/28 02:21:23;;;;;;;7.78;6.05;;;16.60;92.60;;;;;;2073856;28;20084;-94
2021/07/28 02:22:24;;;;;;;7.38;5.55;;;16.60;92.50;;;;;;2081974;28;20120;-93
2021/07/28 02:23:25;;;;;;;7.18;5.55;;;16.60;92.60;;;;;;2065920;28;20484;-95
2021/07/28 02:24:25;;;;;;;7.63;5.90;;;16.70;92.60;;;;;;2050532;28;20039;-94
2021/07/28 02:25:27;;;;;;;10.55;5.53;;;16.70;92.60;;;;;;2043284;28;20039;-93
2021/07/28 02:26:27;;;;;;;7.88;5.88;;;16.70;92.60;;;;;;2071598;28;20094;-93
2021/07/28 02:27:28;;;;;;;6.70;5.30;;;16.70;92.60;;;;;;2080639;28;20035;-94
2021/07/28 02:28:29;;;;;;;8.65;5.65;;;16.70;92.60;;;;;;2073522;28;20130;-94
2021/07/28 02:29:31;;;;;;;7.57;5.80;;;16.70;92.50;;;;;;2073003;28;20065;-94
2021/07/28 02:30:31;;;;;;;7.95;5.80;;;16.70;92.50;;;;;;2058780;28;20046;-93
2021/07/28 02:31:32;;;;;;;7.38;5.47;;;16.70;92.50;;;;;;2067740;28;20132;-93
2021/07/28 02:32:33;;;;;;;7.07;5.30;;;16.70;92.50;;;;;;2067555;28;20015;-91
2021/07/28 02:33:34;;;;;;;8.07;5.78;;;16.70;92.50;;;;;;2067218;28;20038;-94
2021/07/28 02:34:35;;;;;;;7.03;5.18;;;16.70;92.50;;;;;;2073968;28;20046;-93
2021/07/28 02:35:36;;;;;;;7.57;5.53;;;16.70;92.50;;;;;;2061884;28;20121;-93
2021/07/28 02:36:36;;;;;;;7.45;5.65;;;16.70;92.50;;;;;;2065549;28;20496;-93
2021/07/28 02:37:38;;;;;;;7.78;5.55;;;16.70;92.50;;;;;;2057874;28;20031;-94
2021/07/28 02:38:38;;;;;;;8.30;5.80;;;16.70;92.50;;;;;;2049303;28;20043;-94
2021/07/28 02:39:39;;;;;;;7.45;5.90;;;16.70;92.50;;;;;;2041860;29;20054;-94
2021/07/28 02:40:40;;;;;;;7.65;5.75;;;16.70;92.50;;;;;;2052553;28;20066;-94
2021/07/28 02:41:41;;;;;;;8.52;5.80;;;16.70;92.50;;;;;;2063570;28;20033;-93
2021/07/28 02:42:41;;;;;;;7.68;5.45;;;16.70;92.50;;;;;;2071774;28;20065;-93
2021/07/28 02:43:42;;;;;;;7.72;5.65;;;16.70;92.50;;;;;;2062118;28;20062;-94
2021/07/28 02:44:43;;;;;;;7.68;5.70;;;16.70;92.50;;;;;;2070759;28;20062;-94
2021/07/28 02:45:43;;;;;;;6.82;5.30;;;16.70;92.50;;;;;;2071948;28;20173;-93
2021/07/28 02:46:44;;;;;;;6.97;5.45;;;16.70;92.50;;;;;;2073086;28;20487;-94
2021/07/28 02:47:45;;;;;;;7.45;5.30;;;16.70;92.50;;;;;;2068456;28;20066;-94
2021/07/28 02:48:45;;;;;;;7.45;5.57;;;16.70;92.50;;;;;;2065752;28;20038;-94
2021/07/28 02:49:46;;;;;;;6.90;5.15;;;16.70;92.50;;;;;;2068068;28;20030;-93
2021/07/28 02:50:47;;;;;;;8.82;5.40;;;16.70;92.50;;;;;;2069603;28;20494;-94
2021/07/28 02:51:47;;;;;;;8.07;5.88;;;16.70;92.50;;;;;;2063430;28;20038;-94
2021/07/28 02:52:48;;;;;;;6.95;5.30;;;16.70;92.50;;;;;;2055605;28;20043;-93
2021/07/28 02:53:49;;;;;;;8.25;5.53;;;16.60;92.50;;;;;;2045979;29;20075;-93
2021/07/28 02:54:51;;;;;;;7.95;5.60;;;16.70;92.50;;;;;;2048120;29;20031;-94
2021/07/28 02:55:51;;;;;;;6.97;5.38;;;16.70;92.50;;;;;;2066445;28;20042;-94
2021/07/28 02:56:52;;;;;;;7.18;5.20;;;16.60;92.50;;;;;;2077446;28;20034;-94
2021/07/28 02:57:53;;;;;;;6.97;5.18;;;16.70;92.60;;;;;;2068999;28;20038;-94
2021/07/28 02:58:53;;;;;;;7.40;5.68;;;16.70;92.60;;;;;;2054197;28;20035;-93
2021/07/28 02:59:54;;;;;;;7.22;5.00;;;16.70;92.60;;;;;;2059691;28;20043;-94
2021/07/28 03:00:55;;;;;;;7.47;5.35;;;16.70;92.60;;;;;;2065506;28;20035;-93
2021/07/28 03:01:55;;;;;;;8.15;5.50;;;16.70;92.50;;;;;;2065928;28;20042;-93
2021/07/28 03:02:56;;;;;;;7.53;5.22;;;16.70;92.50;;;;;;2065521;28;20038;-94
2021/07/28 03:03:57;;;;;;;7.55;5.55;;;16.70;92.50;;;;;;2055153;28;20031;-93
2021/07/28 03:04:57;;;;;;;6.80;5.00;;;16.70;92.50;;;;;;2057481;28;20619;-94
2021/07/28 03:05:58;;;;;;;7.13;5.28;;;16.80;92.50;;;;;;2063691;28;20101;-95
2021/07/28 03:06:59;;;;;;;7.88;5.57;;;16.80;92.50;;;;;;2055745;28;20039;-93
2021/07/28 03:07:59;;;;;;;7.05;5.35;;;16.80;92.50;;;;;;2050452;28;20032;-94
2021/07/28 03:09:01;;;;;;;7.07;5.10;;;16.80;92.50;;;;;;2066481;28;20042;-93
2021/07/28 03:10:03;;;;;;;7.47;5.32;;;16.80;92.50;;;;;;2063508;28;20091;-95
2021/07/28 03:11:03;;;;;;;6.85;5.07;;;16.80;92.50;;;;;;2057126;28;20035;-94
2021/07/28 03:12:04;;;;;;;6.88;5.03;;;16.80;92.40;;;;;;2065012;28;20035;-94
2021/07/28 03:13:05;;;;;;;7.25;5.47;;;16.80;92.40;;;;;;2049404;29;20441;-94
2021/07/28 03:14:06;;;;;;;6.82;5.18;;;16.90;92.40;;;;;;2056962;28;20031;-93
2021/07/28 03:15:07;;;;;;;8.68;5.18;;;16.90;92.40;;;;;;2056887;28;20035;-94
2021/07/28 03:16:09;;;;;;;9.30;5.60;;;16.90;92.40;;;;;;2065298;28;20038;-94
2021/07/28 03:17:09;;;;;;;7.10;5.50;;;16.90;92.40;;;;;;2065491;28;20530;-93
2021/07/28 03:18:10;;;;;;;7.85;5.80;;;16.90;92.40;;;;;;2064938;28;20049;-94
2021/07/28 03:19:10;;;;;;;6.32;5.00;;;16.90;92.40;;;;;;2057325;28;20070;-94
2021/07/28 03:20:11;;;;;;;7.95;5.20;;;16.90;92.40;;;;;;2059092;28;20034;-94
2021/07/28 03:21:12;;;;;;;8.65;5.70;;;16.90;92.40;;;;;;2073236;28;20120;-93
2021/07/28 03:22:13;;;;;;;7.40;5.50;;;16.90;92.40;;;;;;2064804;28;20030;-94
2021/07/28 03:23:13;;;;;;;7.03;5.10;;;16.90;92.40;;;;;;2055723;28;20038;-94
2021/07/28 03:24:14;;;;;;;7.47;5.65;;;16.90;92.40;;;;;;2049922;28;20035;-94
2021/07/28 03:25:15;;;;;;;6.38;5.07;;;16.90;92.40;;;;;;2048240;28;20220;-94
2021/07/28 03:26:15;;;;;;;7.78;5.45;;;17.00;92.40;;;;;;2041313;29;20174;-93
2021/07/28 03:27:16;;;;;;;7.82;5.38;;;17.00;92.40;;;;;;2050790;28;20036;-93
2021/07/28 03:28:17;;;;;;;7.32;5.38;;;17.00;92.40;;;;;;2054844;28;20078;-93
2021/07/28 03:29:17;;;;;;;6.70;5.22;;;17.00;92.40;;;;;;2057642;28;20035;-94
2021/07/28 03:30:18;;;;;;;9.10;5.38;;;17.00;92.40;;;;;;2057036;28;20110;-94
2021/07/28 03:31:19;;;;;;;7.18;5.10;;;17.00;92.40;;;;;;2073069;28;20133;-94
2021/07/28 03:32:19;;;;;;;7.07;5.10;;;17.00;92.40;;;;;;2049916;28;20440;-93
2021/07/28 03:33:20;;;;;;;9.00;5.22;;;17.00;92.40;;;;;;2058252;28;20037;-94
2021/07/28 03:34:21;;;;;;;6.88;5.10;;;17.00;92.40;;;;;;2051125;28;20481;-93
2021/07/28 03:35:21;;;;;;;6.68;5.20;;;17.00;92.30;;;;;;2056241;28;20480;-94
2021/07/28 03:36:22;;;;;;;7.47;5.13;;;17.00;92.30;;;;;;2057710;28;20038;-94
2021/07/28 03:37:22;;;;;;;7.60;5.53;;;17.00;92.60;;;;;;2048690;28;20039;-94
2021/07/28 03:38:23;;;;;;;7.70;5.05;;;17.00;92.30;;;;;;2047234;28;20036;-94
2021/07/28 03:39:24;;;;;;;8.23;5.35;;;17.00;92.30;;;;;;2065394;28;20046;-93
2021/07/28 03:40:25;;;;;;;7.70;5.32;;;17.00;92.30;;;;;;2057013;28;20066;-94
2021/07/28 03:41:25;;;;;;;7.30;5.43;;;16.90;92.30;;;;;;2063083;28;20058;-94
2021/07/28 03:42:30;;;;;;;6.32;4.90;;;16.90;92.30;;;;;;2049505;28;20043;-95
2021/07/28 03:43:30;;;;;;;7.00;5.10;;;16.90;92.30;;;;;;2057566;28;20031;-94
2021/07/28 03:44:33;;;;;;;7.70;5.32;;;16.90;92.30;;;;;;2049528;28;20493;-94
2021/07/28 03:45:34;;;;;;;7.32;5.35;;;16.90;92.30;;;;;;2051961;28;20031;-94
2021/07/28 03:46:35;;;;;;;6.70;5.13;;;16.90;92.30;;;;;;2073526;28;20069;-95
2021/07/28 03:47:36;;;;;;;8.23;5.63;;;16.90;92.30;;;;;;2057885;28;20039;-94
2021/07/28 03:48:36;;;;;;;6.93;5.00;;;16.90;92.30;;;;;;2057734;28;20519;-94
2021/07/28 03:49:37;;;;;;;7.55;5.18;;;16.90;92.30;;;;;;2065185;28;20558;-95
2021/07/28 03:50:38;;;;;;;8.10;5.45;;;16.90;92.30;;;;;;2059346;28;20039;-95
2021/07/28 03:51:38;;;;;;;8.25;5.32;;;16.90;92.30;;;;;;2048103;28;20095;-94
2021/07/28 03:52:39;;;;;;;7.65;5.60;;;16.90;92.20;;;;;;2056260;28;20424;-94
2021/07/28 03:53:40;;;;;;;7.93;5.63;;;16.90;92.30;;;;;;2056780;28;20431;-93
2021/07/28 03:54:40;;;;;;;7.32;5.18;;;16.90;92.30;;;;;;2059393;28;20528;-94
2021/07/28 03:55:41;;;;;;;7.60;5.47;;;16.90;92.30;;;;;;2046421;28;20047;-93
2021/07/28 03:56:41;;;;;;;8.70;5.18;;;16.80;92.30;;;;;;2066987;28;20122;-94
2021/07/28 03:57:42;;;;;;;7.30;5.50;;;16.80;92.30;;;;;;2057732;28;20031;-94
2021/07/28 03:58:43;;;;;;;7.25;5.40;;;16.80;92.50;;;;;;2050967;28;20536;-94
2021/07/28 03:59:44;;;;;;;7.47;5.43;;;16.80;92.30;;;;;;2058391;28;20602;-93
2021/07/28 04:00:44;;;;;;;7.85;5.20;;;16.80;92.30;;;;;;2053281;28;20031;-94
2021/07/28 04:01:45;;;;;;;7.20;5.30;;;16.80;92.30;;;;;;2050716;28;20182;-93
2021/07/28 04:02:46;;;;;;;7.78;5.65;;;16.80;92.30;;;;;;2058663;28;20035;-94
2021/07/28 04:03:49;;;;;;;7.47;5.65;;;16.80;92.30;;;;;;2059222;28;20042;-95
2021/07/28 04:04:49;;;;;;;8.55;5.40;;;16.80;92.30;;;;;;2066708;28;20038;-95
2021/07/28 04:05:54;;;;;;;8.50;5.68;;;16.80;92.20;;;;;;2066985;28;20045;-94
2021/07/28 04:06:55;;;;;;;7.53;5.40;;;16.80;92.20;;;;;;2070385;28;20125;-95
2021/07/28 04:07:56;;;;;;;7.10;5.28;;;16.80;92.20;;;;;;2057877;28;20078;-95
2021/07/28 04:08:57;;;;;;;7.78;5.30;;;16.80;92.20;;;;;;2066296;28;20097;-94
2021/07/28 04:09:58;;;;;;;6.95;5.30;;;16.80;92.30;;;;;;2056795;28;20500;-94
2021/07/28 04:10:58;;;;;;;7.63;5.38;;;16.80;92.30;;;;;;2045757;28;20279;-95
2021/07/28 04:11:59;;;;;;;7.30;5.32;;;16.80;92.30;;;;;;2050011;28;20094;-94
2021/07/28 04:13:00;;;;;;;7.63;5.57;;;16.80;92.30;;;;;;2066580;28;20405;-94
2021/07/28 04:14:00;;;;;;;7.18;5.72;;;16.80;92.20;;;;;;2057862;28;20043;-94
2021/07/28 04:15:01;;;;;;;6.45;5.00;;;16.80;92.30;;;;;;2051132;28;20082;-95
2021/07/28 04:16:02;;;;;;;7.72;4.95;;;16.80;92.30;;;;;;2052053;28;20037;-95
2021/07/28 04:17:03;;;;;;;7.25;4.90;;;16.80;92.30;;;;;;2057640;28;20051;-95
2021/07/28 04:18:03;;;;;;;7.50;5.28;;;16.80;92.30;;;;;;2057684;28;20529;-94
2021/07/28 04:19:04;;;;;;;7.28;5.05;;;16.80;92.30;;;;;;2066058;28;20057;-96
2021/07/28 04:20:06;;;;;;;6.72;5.10;;;16.80;92.30;;;;;;2075516;28;20033;-93
2021/07/28 04:21:06;;;;;;;9.32;5.07;;;16.80;92.20;;;;;;2064165;28;20519;-94
2021/07/28 04:22:07;;;;;;;6.68;5.10;;;16.80;92.20;;;;;;2051021;29;20035;-94
2021/07/28 04:23:07;;;;;;;7.18;5.22;;;16.80;92.20;;;;;;2050907;28;20067;-95
2021/07/28 04:24:08;;;;;;;6.65;4.80;;;16.80;92.20;;;;;;2057136;28;20035;-93
2021/07/28 04:25:10;;;;;;;6.28;4.70;;;16.80;92.20;;;;;;2050458;28;20051;-94
2021/07/28 04:26:10;;;;;;;6.15;4.80;;;16.80;92.20;;;;;;2057435;28;20520;-94
2021/07/28 04:27:12;;;;;;;7.22;4.97;;;16.80;92.20;;;;;;2058570;28;20035;-94
2021/07/28 04:28:12;;;;;;;6.35;4.90;;;16.80;92.20;;;;;;2064257;28;20115;-92
2021/07/28 04:29:13;;;;;;;6.97;5.30;;;16.80;92.20;;;;;;2067023;28;20400;-94
2021/07/28 04:30:14;;;;;;;6.93;4.95;;;16.80;92.20;;;;;;2066496;28;20564;-94
2021/07/28 04:31:14;;;;;;;6.50;4.85;;;16.90;92.20;;;;;;2059010;28;20051;-94
2021/07/28 04:32:15;;;;;;;7.00;5.45;;;16.80;92.20;;;;;;2058871;28;20035;-95
2021/07/28 04:33:16;;;;;;;7.22;5.45;;;16.90;92.20;;;;;;2053594;28;20047;-94
2021/07/28 04:34:16;;;;;;;6.30;4.90;;;16.90;92.20;;;;;;2052854;28;20093;-94
2021/07/28 04:35:17;;;;;;;6.53;4.97;;;16.90;92.20;;;;;;2059331;28;20402;-94
2021/07/28 04:36:18;;;;;;;7.80;5.18;;;16.90;92.20;;;;;;2068440;28;20053;-94
2021/07/28 04:37:20;;;;;;;7.05;4.95;;;16.90;92.20;;;;;;2068110;28;20027;-94
2021/07/28 04:38:21;;;;;;;6.85;5.03;;;16.90;92.20;;;;;;2061551;28;20039;-94
2021/07/28 04:39:22;;;;;;;7.90;4.97;;;16.90;92.20;;;;;;2060161;28;20030;-94
2021/07/28 04:40:23;;;;;;;8.00;5.10;;;16.90;92.20;;;;;;2050414;28;20042;-94
2021/07/28 04:41:23;;;;;;;6.68;4.95;;;16.90;92.20;;;;;;2070330;28;20496;-93
2021/07/28 04:42:24;;;;;;;6.53;5.13;;;16.90;92.20;;;;;;2073863;28;20125;-94
2021/07/28 04:43:24;;;;;;;6.97;5.28;;;16.90;92.10;;;;;;2054711;28;20038;-94
2021/07/28 04:44:25;;;;;;;7.28;5.35;;;16.90;92.40;;;;;;2050173;28;20480;-95
2021/07/28 04:45:26;;;;;;;7.97;5.13;;;16.90;92.10;;;;;;2064540;28;20059;-94
2021/07/28 04:46:26;;;;;;;7.13;4.90;;;16.90;92.10;;;;;;2064729;28;20167;-93
2021/07/28 04:47:28;;;;;;;6.80;4.93;;;16.90;92.20;;;;;;2059401;28;20075;-95
2021/07/28 04:48:29;;;;;;;6.20;4.90;;;16.90;92.20;;;;;;2062101;28;20038;-94
2021/07/28 04:49:30;;;;;;;7.57;5.30;;;16.90;92.20;;;;;;2075300;28;20050;-94
2021/07/28 04:50:32;;;;;;;6.38;4.97;;;16.90;92.20;;;;;;2065132;28;20057;-94
2021/07/28 04:51:32;;;;;;;7.35;4.95;;;17.00;92.20;;;;;;2066736;28;20035;-95
2021/07/28 04:52:33;;;;;;;6.75;5.30;;;16.90;92.20;;;;;;2050636;28;20043;-94
2021/07/28 04:53:34;;;;;;;6.70;5.00;;;16.90;92.20;;;;;;2058053;28;20043;-95
2021/07/28 04:54:34;;;;;;;7.03;5.13;;;17.00;92.20;;;;;;2060872;28;20035;-96
2021/07/28 04:55:35;;;;;;;6.63;4.82;;;17.00;92.20;;;;;;2068924;28;20035;-93
2021/07/28 04:56:36;;;;;;;7.07;4.78;;;17.00;92.20;;;;;;2070878;28;20112;-95
2021/07/28 04:57:37;;;;;;;6.68;5.10;;;17.00;92.20;;;;;;2050789;28;20043;-95
2021/07/28 04:58:38;;;;;;;6.78;5.00;;;17.00;92.20;;;;;;2058764;28;20082;-95
2021/07/28 04:59:38;;;;;;;7.93;5.28;;;17.00;92.20;;;;;;2055155;28;20057;-95
2021/07/28 05:00:39;;;;;;;7.07;5.25;;;17.00;92.20;;;;;;2058295;28;20038;-96
2021/07/28 05:01:40;;;;;;;7.43;5.15;;;17.00;92.20;;;;;;2067680;28;20191;-95
2021/07/28 05:02:40;;;;;;;6.95;5.05;;;17.00;92.20;;;;;;2066083;28;20042;-94
2021/07/28 05:03:41;;;;;;;8.32;5.60;;;17.00;92.20;;;;;;2066563;28;20392;-95
2021/07/28 05:04:44;;;;;;;7.82;5.65;;;17.00;92.20;;;;;;2058664;28;20038;-96
2021/07/28 05:05:45;;;;;;;6.38;4.93;;;17.00;92.10;;;;;;2045853;28;20047;-95
2021/07/28 05:06:46;;;;;;;6.35;5.10;;;17.00;92.10;;;;;;2051079;28;20050;-96
2021/07/28 05:07:46;;;;;;;6.97;5.07;;;17.00;92.10;;;;;;2065599;28;20079;-96
2021/07/28 05:08:47;;;;;;;7.18;5.07;;;17.00;92.20;;;;;;2050370;29;20449;-95
2021/07/28 05:09:48;;;;;;;7.57;5.25;;;17.00;92.20;;;;;;2049902;28;20457;-95
2021/07/28 05:10:49;;;;;;;7.15;5.25;;;17.00;92.10;;;;;;2066761;28;20042;-94
2021/07/28 05:11:49;;;;;;;7.47;5.43;;;17.10;92.20;;;;;;2063249;28;20085;-94
2021/07/28 05:12:50;;;;;;;7.93;5.53;;;17.00;92.10;;;;;;2063157;28;20030;-95
2021/07/28 05:13:51;;;;;;;6.85;5.10;;;17.00;92.10;;;;;;2075164;28;20510;-94
2021/07/28 05:14:52;;;;;;;7.78;5.50;;;17.10;92.10;;;;;;2062042;28;20043;-95
2021/07/28 05:15:53;;;;;;;7.43;5.28;;;17.00;92.10;;;;;;2050193;28;20043;-94
2021/07/28 05:16:54;;;;;;;7.45;5.82;;;17.10;92.20;;;;;;2049610;28;20031;-95
2021/07/28 05:17:54;;;;;;;7.32;5.50;;;17.10;92.20;;;;;;2057773;28;20061;-95
2021/07/28 05:18:55;;;;;;;7.90;5.70;;;17.10;92.20;;;;;;2056860;28;20516;-95
2021/07/28 05:19:56;;;;;;;7.57;5.60;;;17.10;92.10;;;;;;2060790;28;20098;-94
2021/07/28 05:20:57;;;;;;;6.88;5.40;;;17.10;92.10;;;;;;2073662;28;20034;-94